| time (UTC) | temp F | wind direction | speed MPH | gust MPH | rain 1hr in | rain 24hr in | rain mn in | humidity % | barometer mb |
| 20260905030519 | 75 | 0.0 | 0.0 | 0.00 | 0.00 | 0.00 | 42 | 1015.1 | |
| 20260905025519 | 76 | 0.0 | 2.0 | 0.00 | 0.00 | 0.00 | 41 | 1013.9 | |
| 20260905024519 | 77 | 0.0 | 1.0 | 0.00 | 0.00 | 0.00 | 39 | 1014.1 | |
| 20260905023519 | 78 | 0.0 | 1.0 | 0.00 | 0.00 | 0.00 | 38 | 1014.0 | |
| 20260905022519 | 79 | 0.0 | 0.0 | 0.00 | 0.00 | 0.00 | 35 | 1013.2 | |
| 20260905021519 | 81 | 0.0 | 0.0 | 0.00 | 0.00 | 0.00 | 32 | 1013.4 | |
| 20260905020519 | 82 | 0.0 | 0.0 | 0.00 | 0.00 | 0.00 | 30 | 1013.5 | |
| 20260905015519 | 83 | 0.0 | 1.0 | 0.00 | 0.00 | 0.00 | 28 | 1012.7 | |
| 20260905014519 | 83 | 0.0 | 2.0 | 0.00 | 0.00 | 0.00 | 27 | 1012.6 | |
| 20260905013519 | 84 | 0.0 | 2.0 | 0.00 | 0.00 | 0.00 | 27 | 1013.0 | |
| 20260905012519 | 84 | 158 | 1.0 | 3.0 | 0.00 | 0.00 | 0.00 | 26 | 1012.6 |
| 20260905011519 | 85 | 158 | 1.0 | 5.0 | 0.00 | 0.00 | 0.00 | 26 | 1012.6 |
| 20260905010519 | 85 | 158 | 1.0 | 4.0 | 0.00 | 0.00 | 0.00 | 25 | 1012.6 |
| 20260905005519 | 86 | 158 | 1.0 | 3.0 | 0.00 | 0.00 | 0.00 | 22 | 1012.8 |
| 20260905004519 | 87 | 113 | 1.0 | 2.0 | 0.00 | 0.00 | 0.00 | 21 | 1012.9 |
| 20260905003519 | 87 | 158 | 1.0 | 3.0 | 0.00 | 0.00 | 0.00 | 21 | 1012.8 |
| 20260905003019 | 87 | 180 | 1.0 | 6.0 | 0.00 | 0.00 | 0.00 | 21 | 1012.8 |
| 20260905002018 | 88 | 0.0 | 3.0 | 0.00 | 0.00 | 0.00 | 21 | 1013.1 | |
| 20260905001019 | 88 | 158 | 1.0 | 3.0 | 0.00 | 0.00 | 0.00 | 21 | 1013.1 |
| 20260905000019 | 88 | 0.0 | 3.0 | 0.00 | 0.00 | 0.00 | 21 | 1013.1 | |
| 20260904235040 | 87 | 180 | 1.0 | 5.0 | 0.00 | 0.00 | 0.00 | 22 | 1012.8 |
| 20260904234039 | 88 | 0.0 | 1.0 | 0.00 | 0.00 | 0.00 | 22 | 1013.2 | |
| 20260904233019 | 89 | 158 | 1.0 | 4.0 | 0.00 | 0.00 | 0.00 | 20 | 1013.1 |
| 20260904232019 | 90 | 0.0 | 1.0 | 0.00 | 0.00 | 0.00 | 21 | 1013.4 | |
| 20260904231018 | 90 | 0.0 | 3.0 | 0.00 | 0.00 | 0.00 | 20 | 1013.5 | |
| 20260904230019 | 90 | 203 | 1.0 | 3.0 | 0.00 | 0.00 | 0.00 | 18 | 1013.6 |
| 20260904225019 | 91 | 158 | 1.0 | 4.0 | 0.00 | 0.00 | 0.00 | 18 | 1013.7 |
| 20260904224018 | 90 | 180 | 1.0 | 5.0 | 0.00 | 0.00 | 0.00 | 19 | 1013.9 |
| 20260904223019 | 91 | 158 | 2.0 | 5.0 | 0.00 | 0.00 | 0.00 | 17 | 1014.4 |
| 20260904222019 | 91 | 158 | 1.0 | 4.0 | 0.00 | 0.00 | 0.00 | 18 | 1014.3 |
| 20260904221019 | 91 | 113 | 2.0 | 4.0 | 0.00 | 0.00 | 0.00 | 17 | 1014.3 |
| 20260904220018 | 92 | 158 | 2.0 | 6.0 | 0.00 | 0.00 | 0.00 | 18 | 1014.4 |
| 20260904215100 | 92 | 135 | 1.0 | 5.0 | 0.00 | 0.00 | 0.00 | 17 | 1014.5 |
| 20260904214041 | 93 | 158 | 1.0 | 3.0 | 0.00 | 0.00 | 0.00 | 18 | 1014.9 |
| 20260904213020 | 93 | 113 | 2.0 | 7.0 | 0.00 | 0.00 | 0.00 | 17 | 1014.9 |
| 20260904212020 | 93 | 0.0 | 3.0 | 0.00 | 0.00 | 0.00 | 18 | 1015.0 | |
| 20260904211020 | 93 | 203 | 1.0 | 5.0 | 0.00 | 0.00 | 0.00 | 18 | 1015.1 |
| 20260904210020 | 93 | 0.0 | 3.0 | 0.00 | 0.00 | 0.00 | 18 | 1015.1 | |
| 20260904205018 | 93 | 158 | 2.0 | 5.0 | 0.00 | 0.00 | 0.00 | 19 | 1015.3 |
| 20260904204040 | 93 | 203 | 1.0 | 4.0 | 0.00 | 0.00 | 0.00 | 20 | 1015.4 |
| 20260904203021 | 93 | 90 | 1.0 | 5.0 | 0.00 | 0.00 | 0.00 | 19 | 1015.4 |
| 20260904202020 | 92 | 113 | 1.0 | 4.0 | 0.00 | 0.00 | 0.00 | 19 | 1015.4 |
| 20260904201020 | 93 | 180 | 2.0 | 6.0 | 0.00 | 0.00 | 0.00 | 19 | 1015.8 |
| 20260904200100 | 93 | 158 | 1.0 | 4.0 | 0.00 | 0.00 | 0.00 | 18 | 1015.7 |
| 20260904195020 | 92 | 158 | 2.0 | 5.0 | 0.00 | 0.00 | 0.00 | 19 | 1015.8 |
| 20260904194020 | 92 | 135 | 2.0 | 5.0 | 0.00 | 0.00 | 0.00 | 20 | 1016.0 |
| 20260904193101 | 92 | 113 | 2.0 | 6.0 | 0.00 | 0.00 | 0.00 | 21 | 1016.0 |
| 20260904192020 | 93 | 180 | 2.0 | 6.0 | 0.00 | 0.00 | 0.00 | 20 | 1016.1 |
| 20260904191021 | 92 | 203 | 2.0 | 6.0 | 0.00 | 0.00 | 0.00 | 23 | 1016.5 |
| 20260904190020 | 92 | 225 | 1.0 | 3.0 | 0.00 | 0.00 | 0.00 | 21 | 1016.6 |
| 20260904185021 | 92 | 158 | 1.0 | 6.0 | 0.00 | 0.00 | 0.00 | 22 | 1016.8 |
| 20260904184040 | 92 | 0.0 | 2.0 | 0.00 | 0.00 | 0.00 | 23 | 1017.2 | |
| 20260904183020 | 90 | 158 | 1.0 | 3.0 | 0.00 | 0.00 | 0.00 | 26 | 1017.2 |
| 20260904182040 | 89 | 135 | 1.0 | 4.0 | 0.00 | 0.00 | 0.00 | 27 | 1017.2 |
| 20260904181020 | 87 | 135 | 1.0 | 2.0 | 0.00 | 0.00 | 0.00 | 28 | 1017.4 |
| 20260904180020 | 87 | 158 | 2.0 | 4.0 | 0.00 | 0.00 | 0.00 | 28 | 1017.5 |
| 20260904175040 | 86 | 135 | 3.0 | 6.0 | 0.00 | 0.00 | 0.00 | 27 | 1017.6 |
| 20260904174020 | 87 | 135 | 1.0 | 3.0 | 0.00 | 0.00 | 0.00 | 27 | 1018.0 |
| 20260904173020 | 86 | 135 | 1.0 | 4.0 | 0.00 | 0.00 | 0.00 | 29 | 1017.8 |
| 20260904172020 | 85 | 135 | 1.0 | 4.0 | 0.00 | 0.00 | 0.00 | 29 | 1017.9 |
| 20260904171020 | 84 | 113 | 1.0 | 3.0 | 0.00 | 0.00 | 0.00 | 29 | 1017.5 |
| 20260904170020 | 82 | 135 | 1.0 | 5.0 | 0.00 | 0.00 | 0.00 | 34 | 1017.3 |
| 20260904165040 | 82 | 158 | 2.0 | 4.0 | 0.00 | 0.00 | 0.00 | 32 | 1017.3 |
| 20260904164020 | 81 | 225 | 1.0 | 6.0 | 0.00 | 0.00 | 0.00 | 34 | 1017.1 |
| 20260904163020 | 80 | 135 | 1.0 | 4.0 | 0.00 | 0.00 | 0.00 | 36 | 1017.2 |
| 20260904162021 | 80 | 135 | 1.0 | 4.0 | 0.00 | 0.00 | 0.00 | 35 | 1017.2 |
| 20260904161020 | 80 | 203 | 1.0 | 3.0 | 0.00 | 0.00 | 0.00 | 38 | 1017.2 |
| 20260904160020 | 79 | 180 | 1.0 | 3.0 | 0.00 | 0.00 | 0.00 | 38 | 1016.9 |
| 20260904155020 | 79 | 0.0 | 1.0 | 0.00 | 0.00 | 0.00 | 41 | 1016.9 | |
| 20260904154020 | 78 | 0.0 | 2.0 | 0.00 | 0.00 | 0.00 | 43 | 1016.9 | |
| 20260904153040 | 77 | 0.0 | 2.0 | 0.00 | 0.00 | 0.00 | 44 | 1017.0 | |
| 20260904152020 | 76 | 203 | 1.0 | 1.0 | 0.00 | 0.00 | 0.00 | 44 | 1016.7 |
| 20260904151040 | 74 | 0.0 | 1.0 | 0.00 | 0.00 | 0.00 | 48 | 1016.7 | |
| 20260904150020 | 73 | 0.0 | 2.0 | 0.00 | 0.00 | 0.00 | 49 | 1016.6 | |
| 20260904145020 | 71 | 0.0 | 2.0 | 0.00 | 0.00 | 0.00 | 50 | 1016.1 | |
| 20260904144021 | 69 | 0.0 | 1.0 | 0.00 | 0.00 | 0.00 | 55 | 1016.2 | |
| 20260904143020 | 66 | 0.0 | 1.0 | 0.00 | 0.00 | 0.00 | 58 | 1015.7 | |
| 20260904142020 | 65 | 0.0 | 1.0 | 0.00 | 0.00 | 0.00 | 62 | 1015.7 | |
| 20260904141020 | 63 | 0.0 | 0.0 | 0.00 | 0.00 | 0.00 | 66 | 1015.6 | |
| 20260904140020 | 61 | 0.0 | 0.0 | 0.00 | 0.00 | 0.00 | 71 | 1015.1 | |
| 20260904135020 | 60 | 0.0 | 0.0 | 0.00 | 0.00 | 0.00 | 72 | 1014.7 | |
| 20260904134020 | 58 | 0.0 | 0.0 | 0.00 | 0.00 | 0.00 | 75 | 1014.7 | |
| 20260904133020 | 58 | 0.0 | 0.0 | 0.00 | 0.00 | 0.00 | 75 | 1014.7 | |
| 20260904132020 | 57 | 0.0 | 0.0 | 0.00 | 0.00 | 0.00 | 77 | 1014.3 | |
| 20260904131020 | 56 | 0.0 | 0.0 | 0.00 | 0.00 | 0.00 | 78 | 1014.3 | |
| 20260904130020 | 56 | 0.0 | 0.0 | 0.00 | 0.00 | 0.00 | 77 | 1014.2 | |
| 20260904125020 | 56 | 0.0 | 0.0 | 0.00 | 0.00 | 0.00 | 76 | 1014.0 | |
| 20260904124040 | 56 | 0.0 | 0.0 | 0.00 | 0.00 | 0.00 | 74 | 1013.9 | |
| 20260904123020 | 57 | 0.0 | 0.0 | 0.00 | 0.00 | 0.00 | 73 | 1013.9 | |
| 20260904122020 | 58 | 0.0 | 0.0 | 0.00 | 0.00 | 0.00 | 72 | 1013.8 | |
| 20260904121020 | 58 | 0.0 | 0.0 | 0.00 | 0.00 | 0.00 | 70 | 1014.0 | |
| 20260904120019 | 59 | 0.0 | 0.0 | 0.00 | 0.00 | 0.00 | 70 | 1014.0 | |
| 20260904115040 | 58 | 0.0 | 1.0 | 0.00 | 0.00 | 0.00 | 73 | 1014.0 | |
| 20260904114020 | 57 | 0.0 | 0.0 | 0.00 | 0.00 | 0.00 | 75 | 1014.1 | |
| 20260904113019 | 58 | 0.0 | 0.0 | 0.00 | 0.00 | 0.00 | 74 | 1014.1 | |
| 20260904112020 | 58 | 0.0 | 0.0 | 0.00 | 0.00 | 0.00 | 73 | 1014.1 | |
| 20260904111020 | 59 | 0.0 | 0.0 | 0.00 | 0.00 | 0.00 | 71 | 1014.6 | |
| 20260904110019 | 59 | 0.0 | 0.0 | 0.00 | 0.00 | 0.00 | 68 | 1014.6 | |
| 20260904105020 | 60 | 0.0 | 0.0 | 0.00 | 0.00 | 0.00 | 66 | 1014.5 | |
| 20260904104019 | 61 | 0.0 | 0.0 | 0.00 | 0.00 | 0.00 | 65 | 1014.7 | |
| 20260904103020 | 61 | 0.0 | 0.0 | 0.00 | 0.00 | 0.00 | 62 | 1014.6 | |
| 20260904102019 | 62 | 0.0 | 0.0 | 0.00 | 0.00 | 0.00 | 61 | 1014.9 | |
| 20260904101059 | 63 | 0.0 | 1.0 | 0.00 | 0.00 | 0.00 | 60 | 1015.0 | |
| 20260904100019 | 62 | 0.0 | 0.0 | 0.00 | 0.00 | 0.00 | 64 | 1014.8 | |
| 20260904095019 | 63 | 0.0 | 0.0 | 0.00 | 0.00 | 0.00 | 62 | 1015.1 | |
| 20260904094020 | 64 | 0.0 | 0.0 | 0.00 | 0.00 | 0.00 | 60 | 1015.1 | |
| 20260904093019 | 63 | 0.0 | 0.0 | 0.00 | 0.00 | 0.00 | 59 | 1015.1 | |
| 20260904092020 | 63 | 0.0 | 0.0 | 0.00 | 0.00 | 0.00 | 61 | 1015.1 | |
| 20260904091019 | 64 | 0.0 | 0.0 | 0.00 | 0.00 | 0.00 | 60 | 1015.1 | |
| 20260904090019 | 64 | 0.0 | 0.0 | 0.00 | 0.00 | 0.00 | 59 | 1015.0 | |
| 20260904085019 | 64 | 0.0 | 0.0 | 0.00 | 0.00 | 0.00 | 59 | 1015.0 | |
| 20260904084020 | 64 | 0.0 | 1.0 | 0.00 | 0.00 | 0.00 | 60 | 1015.5 | |
| 20260904083019 | 63 | 0.0 | 0.0 | 0.00 | 0.00 | 0.00 | 61 | 1015.5 | |
| 20260904082019 | 64 | 0.0 | 0.0 | 0.00 | 0.00 | 0.00 | 61 | 1015.4 | |
| 20260904081019 | 64 | 0.0 | 0.0 | 0.00 | 0.00 | 0.00 | 59 | 1015.8 | |
| 20260904080019 | 65 | 0.0 | 0.0 | 0.00 | 0.00 | 0.00 | 59 | 1015.9 | |
| 20260904075019 | 66 | 0.0 | 0.0 | 0.00 | 0.00 | 0.00 | 58 | 1015.8 | |
| 20260904074019 | 66 | 0.0 | 0.0 | 0.00 | 0.00 | 0.00 | 56 | 1015.9 | |
| 20260904073019 | 66 | 0.0 | 0.0 | 0.00 | 0.00 | 0.00 | 56 | 1015.9 | |
| 20260904072020 | 67 | 0.0 | 0.0 | 0.00 | 0.00 | 0.00 | 56 | 1015.9 | |
| 20260904071019 | 67 | 0.0 | 0.0 | 0.00 | 0.00 | 0.00 | 54 | 1015.7 | |
| 20260904070059 | 68 | 0.0 | 0.0 | 0.00 | 0.00 | 0.00 | 53 | 1016.1 | |
| 20260904065019 | 69 | 0.0 | 0.0 | 0.00 | 0.00 | 0.00 | 51 | 1015.9 | |
| 20260904064019 | 69 | 0.0 | 0.0 | 0.00 | 0.00 | 0.00 | 53 | 1015.3 | |
| 20260904063019 | 69 | 0.0 | 0.0 | 0.00 | 0.00 | 0.00 | 51 | 1015.4 | |
| 20260904062019 | 70 | 0.0 | 0.0 | 0.00 | 0.00 | 0.00 | 51 | 1015.4 | |
| 20260904061019 | 70 | 0.0 | 2.0 | 0.00 | 0.00 | 0.00 | 48 | 1014.8 | |
| 20260904060019 | 71 | 0.0 | 0.0 | 0.00 | 0.00 | 0.00 | 46 | 1015.2 | |
| 20260904055039 | 72 | 0.0 | 0.0 | 0.00 | 0.00 | 0.00 | 44 | 1015.2 | |
| 20260904054039 | 73 | 0.0 | 1.0 | 0.00 | 0.00 | 0.00 | 42 | 1015.2 | |
| 20260904053019 | 73 | 0.0 | 0.0 | 0.00 | 0.00 | 0.00 | 41 | 1015.2 | |
| 20260904052019 | 73 | 0.0 | 3.0 | 0.00 | 0.00 | 0.00 | 41 | 1015.1 | |
| 20260904051039 | 72 | 338 | 1.0 | 5.0 | 0.00 | 0.00 | 0.00 | 42 | 1014.6 |
| 20260904050039 | 72 | 0.0 | 1.0 | 0.00 | 0.00 | 0.00 | 46 | 1014.6 | |
| 20260904045019 | 72 | 0.0 | 1.0 | 0.00 | 0.00 | 0.00 | 43 | 1014.9 | |
| 20260904044019 | 72 | 0.0 | 1.0 | 0.00 | 0.00 | 0.00 | 41 | 1014.9 | |
| 20260904043019 | 72 | 0.0 | 0.0 | 0.00 | 0.00 | 0.00 | 41 | 1015.0 | |
| 20260904042019 | 72 | 0.0 | 1.0 | 0.00 | 0.00 | 0.00 | 43 | 1015.1 | |
| 20260904041019 | 71 | 338 | 1.0 | 2.0 | 0.00 | 0.00 | 0.00 | 43 | 1014.5 |
| 20260904040019 | 71 | 0.0 | 0.0 | 0.00 | 0.00 | 0.00 | 47 | 1014.6 | |
| 20260904035019 | 72 | 0.0 | 0.0 | 0.00 | 0.00 | 0.00 | 46 | 1014.8 | |
| 20260904034039 | 72 | 0.0 | 1.0 | 0.00 | 0.00 | 0.00 | 45 | 1014.2 | |
| 20260904033019 | 73 | 0.0 | 0.0 | 0.00 | 0.00 | 0.00 | 43 | 1014.3 | |
| 20260904032019 | 73 | 0.0 | 1.0 | 0.00 | 0.00 | 0.00 | 44 | 1014.2 | |
| 20260904031019 | 73 | 0.0 | 0.0 | 0.00 | 0.00 | 0.00 | 44 | 1013.3 |